Time;durP1;ratioP1;P1;durP2;ratioP2;P2;SDS_P1;SDS_P2;PMS_P1;PMS_P2;Temp;Humidity;BMP_temperature;BMP_pressure;BME280_temperature;BME280_humidity;BME280_pressure;Samples;Min_cycle;Max_cycle;Signal;HPM_P1;HPM_P2
2021/03/12 00:00:56;;;;;;;46.67;28.17;;;7.40;97.90;;;;;;5085405;28;20385;-70
2021/03/12 00:03:26;;;;;;;50.67;27.02;;;7.30;98.20;;;;;;5088812;28;20056;-70
2021/03/12 00:05:54;;;;;;;45.25;27.83;;;7.40;97.60;;;;;;5087259;28;20068;-70
2021/03/12 00:08:29;;;;;;;48.67;26.80;;;7.50;97.30;;;;;;5083228;28;20102;-69
2021/03/12 00:10:55;;;;;;;45.15;26.50;;;7.50;98.10;;;;;;5087609;28;20047;-69
2021/03/12 00:13:21;;;;;;;50.22;28.15;;;7.50;98.80;;;;;;5088386;28;20406;-70
2021/03/12 00:15:47;;;;;;;43.50;25.85;;;7.40;98.50;;;;;;5087484;28;20766;-70
2021/03/12 00:18:19;;;;;;;43.30;25.92;;;7.50;98.60;;;;;;5091792;28;20028;-70
2021/03/12 00:20:45;;;;;;;49.78;27.08;;;7.40;98.30;;;;;;5092369;28;20592;-70
2021/03/12 00:23:11;;;;;;;46.53;27.67;;;7.50;98.20;;;;;;5088552;28;20024;-69
2021/03/12 00:25:40;;;;;;;50.88;27.88;;;7.60;98.10;;;;;;5079576;28;20030;-69
2021/03/12 00:28:07;;;;;;;45.25;26.33;;;7.60;98.30;;;;;;5090941;28;20039;-70
2021/03/12 00:30:34;;;;;;;49.75;26.63;;;7.60;98.10;;;;;;5092751;28;20035;-69
2021/03/12 00:33:00;;;;;;;52.15;28.45;;;7.60;98.00;;;;;;5091831;28;20039;-70
2021/03/12 00:35:27;;;;;;;51.53;25.55;;;7.50;98.00;;;;;;5092135;28;20055;-70
2021/03/12 00:37:52;;;;;;;47.90;28.05;;;7.60;97.80;;;;;;5090533;28;20036;-70
2021/03/12 00:40:25;;;;;;;44.38;26.23;;;7.60;97.70;;;;;;5089575;28;20116;-70
2021/03/12 00:42:51;;;;;;;41.83;24.52;;;7.60;97.30;;;;;;5076977;28;20089;-70
2021/03/12 00:45:18;;;;;;;40.78;24.25;;;7.60;97.40;;;;;;5092356;28;20024;-70
2021/03/12 00:47:45;;;;;;;46.15;25.25;;;7.60;97.10;;;;;;5091393;28;20024;-70
2021/03/12 00:50:12;;;;;;;42.70;25.70;;;7.70;97.00;;;;;;5092023;28;20077;-70
2021/03/12 00:52:38;;;;;;;44.53;25.92;;;7.60;97.00;;;;;;5092623;28;20059;-69
2021/03/12 00:55:05;;;;;;;48.08;25.52;;;7.60;97.00;;;;;;5092433;28;20047;-70
2021/03/12 00:57:31;;;;;;;44.22;25.60;;;7.70;97.20;;;;;;5089672;28;20039;-69
2021/03/12 00:59:57;;;;;;;43.53;25.42;;;7.60;97.20;;;;;;5091807;28;20032;-70
2021/03/12 01:02:22;;;;;;;48.03;27.25;;;7.50;97.60;;;;;;5091573;28;20089;-70
2021/03/12 01:04:48;;;;;;;49.65;26.38;;;7.60;97.60;;;;;;5092560;28;20020;-70
2021/03/12 01:07:14;;;;;;;44.33;25.35;;;7.60;97.30;;;;;;5091501;28;20050;-70
2021/03/12 01:09:40;;;;;;;42.95;25.13;;;7.50;97.30;;;;;;5091619;28;20453;-69
2021/03/12 01:12:06;;;;;;;45.05;25.35;;;7.50;97.60;;;;;;5091481;28;20505;-70
2021/03/12 01:14:32;;;;;;;42.45;25.75;;;7.50;97.60;;;;;;5086116;28;20032;-70
2021/03/12 01:16:58;;;;;;;44.65;24.38;;;7.50;97.50;;;;;;5084935;28;20032;-70
2021/03/12 01:19:24;;;;;;;38.22;23.98;;;7.50;97.30;;;;;;5092074;28;20081;-70
2021/03/12 01:21:49;;;;;;;45.40;25.52;;;7.50;97.70;;;;;;5089720;28;20031;-69
2021/03/12 01:24:15;;;;;;;48.42;25.63;;;7.50;97.70;;;;;;5087264;28;20107;-69
2021/03/12 01:26:41;;;;;;;46.85;26.35;;;7.50;97.60;;;;;;5091595;28;20439;-70
2021/03/12 01:29:07;;;;;;;47.03;25.25;;;7.50;97.60;;;;;;5091681;28;20062;-70
2021/03/12 01:31:33;;;;;;;49.22;27.55;;;7.50;97.60;;;;;;5085432;28;20085;-70
2021/03/12 01:33:58;;;;;;;50.22;26.45;;;7.50;97.50;;;;;;5082163;28;20493;-70
2021/03/12 01:36:24;;;;;;;45.50;25.98;;;7.50;97.80;;;;;;5090590;28;20043;-70
2021/03/12 01:38:50;;;;;;;43.47;25.05;;;7.50;97.90;;;;;;5091423;28;20038;-69
2021/03/12 01:41:15;;;;;;;42.00;23.75;;;7.50;97.70;;;;;;5090540;28;20025;-70
2021/03/12 01:43:41;;;;;;;44.90;25.85;;;7.50;97.80;;;;;;5090406;28;20427;-69
2021/03/12 01:46:07;;;;;;;50.28;27.88;;;7.50;97.90;;;;;;5091704;28;20508;-70
2021/03/12 01:48:33;;;;;;;48.45;27.00;;;7.50;97.90;;;;;;5086197;28;20432;-69
2021/03/12 01:51:03;;;;;;;42.10;25.55;;;7.50;97.90;;;;;;5071353;28;20029;-69
2021/03/12 01:53:30;;;;;;;43.65;25.80;;;7.50;97.80;;;;;;5089051;28;20024;-70
2021/03/12 01:55:56;;;;;;;44.47;24.90;;;7.50;98.00;;;;;;5089348;28;20421;-70
2021/03/12 01:58:23;;;;;;;48.95;27.55;;;7.60;98.00;;;;;;5091178;28;20081;-69
2021/03/12 02:00:49;;;;;;;44.08;25.38;;;7.60;98.20;;;;;;5090668;28;20039;-71
2021/03/12 02:03:19;;;;;;;48.60;26.77;;;7.50;98.40;;;;;;5090897;28;20032;-70
2021/03/12 02:05:44;;;;;;;39.17;26.13;;;7.50;98.80;;;;;;5084245;28;20060;-70
2021/03/12 02:08:10;;;;;;;46.15;25.98;;;7.50;98.60;;;;;;5089813;28;20074;-70
2021/03/12 02:10:37;;;;;;;49.10;27.17;;;7.40;98.60;;;;;;5091212;28;20020;-70
2021/03/12 02:13:21;;;;;;;44.55;26.48;;;7.50;98.70;;;;;;5090388;28;20028;-70
2021/03/12 02:15:58;;;;;;;48.97;27.25;;;7.50;98.80;;;;;;5082175;28;20028;-69
2021/03/12 02:18:42;;;;;;;46.53;29.40;;;7.50;99.20;;;;;;5091064;28;20051;-69
2021/03/12 02:21:29;;;;;;;49.92;29.35;;;7.60;99.10;;;;;;5090844;28;20653;-70
2021/03/12 02:24:24;;;;;;;49.70;27.33;;;7.70;99.00;;;;;;5080127;28;20020;-70
2021/03/12 02:26:59;;;;;;;48.10;27.23;;;7.70;99.30;;;;;;5084020;28;20051;-70
2021/03/12 02:29:26;;;;;;;58.53;30.45;;;7.70;99.30;;;;;;5090375;28;20032;-70
2021/03/12 02:31:55;;;;;;;47.95;27.27;;;7.60;99.40;;;;;;5090423;28;20095;-70
2021/03/12 02:34:24;;;;;;;53.10;30.05;;;7.70;99.40;;;;;;5090044;28;20032;-70
2021/03/12 02:36:55;;;;;;;48.80;28.23;;;7.60;99.60;;;;;;5090834;28;20051;-71
2021/03/12 02:39:25;;;;;;;49.10;30.77;;;7.60;99.80;;;;;;5087212;28;20025;-71
2021/03/12 02:41:53;;;;;;;52.40;28.40;;;7.50;99.90;;;;;;5070844;28;20090;-70
2021/03/12 02:44:21;;;;;;;47.33;30.42;;;7.50;99.90;;;;;;5089425;28;20031;-70
2021/03/12 02:46:48;;;;;;;49.60;29.13;;;7.50;99.90;;;;;;5090950;28;20107;-70
2021/03/12 02:49:14;;;;;;;53.80;29.50;;;7.50;99.90;;;;;;5090742;28;20020;-69
2021/03/12 02:51:42;;;;;;;57.88;29.95;;;7.50;99.90;;;;;;5090630;28;20028;-70
2021/03/12 02:54:10;;;;;;;50.47;29.90;;;7.70;99.70;;;;;;5090026;28;20394;-69
2021/03/12 02:56:36;;;;;;;55.72;30.45;;;7.70;99.50;;;;;;5084616;28;20368;-69
2021/03/12 02:59:03;;;;;;;48.63;29.40;;;7.80;99.30;;;;;;5070859;28;20059;-69
2021/03/12 03:01:30;;;;;;;49.95;29.80;;;7.80;99.40;;;;;;5086392;28;20024;-69
2021/03/12 03:03:58;;;;;;;54.28;31.02;;;7.80;99.10;;;;;;5090258;28;20382;-70
2021/03/12 03:06:25;;;;;;;53.00;31.63;;;7.70;98.90;;;;;;5088999;28;20452;-69
2021/03/12 03:08:52;;;;;;;55.03;29.98;;;7.80;99.00;;;;;;5090843;28;20028;-70
2021/03/12 03:11:18;;;;;;;53.75;30.35;;;7.70;98.90;;;;;;5090819;28;20028;-70
2021/03/12 03:13:46;;;;;;;57.70;31.65;;;7.70;98.90;;;;;;5092352;28;20111;-70
2021/03/12 03:16:17;;;;;;;52.67;30.23;;;7.70;99.00;;;;;;5093525;28;20036;-69
2021/03/12 03:18:44;;;;;;;49.40;29.00;;;7.80;98.80;;;;;;5094112;28;20151;-69
2021/03/12 03:21:11;;;;;;;48.38;30.52;;;7.70;98.90;;;;;;5080154;28;20123;-70
2021/03/12 03:23:41;;;;;;;46.70;27.25;;;7.70;99.30;;;;;;5074066;28;20052;-69
2021/03/12 03:26:07;;;;;;;42.83;26.20;;;7.70;98.70;;;;;;5089905;28;20036;-69
2021/03/12 03:28:34;;;;;;;49.55;28.38;;;7.70;98.60;;;;;;5092019;28;20508;-69
2021/03/12 03:31:01;;;;;;;48.92;28.65;;;7.70;98.60;;;;;;5084402;28;20036;-70
2021/03/12 03:33:27;;;;;;;43.67;27.88;;;7.70;98.90;;;;;;5073826;28;20542;-70
2021/03/12 03:35:53;;;;;;;56.03;30.42;;;7.70;99.60;;;;;;5089547;28;20087;-69
2021/03/12 03:38:20;;;;;;;49.45;29.58;;;7.70;99.80;;;;;;5092213;28;20440;-69
2021/03/12 03:40:45;;;;;;;45.15;28.77;;;7.70;99.70;;;;;;5093945;28;20024;-69
2021/03/12 03:43:13;;;;;;;50.53;29.08;;;7.70;99.30;;;;;;5093378;28;20085;-70
2021/03/12 03:45:39;;;;;;;53.40;28.63;;;7.80;99.50;;;;;;5093800;28;20035;-70
2021/03/12 03:48:07;;;;;;;47.38;27.70;;;7.70;99.40;;;;;;5089332;28;20379;-69
2021/03/12 03:50:36;;;;;;;45.90;28.00;;;7.70;99.20;;;;;;5093349;28;20028;-70
2021/03/12 03:53:05;;;;;;;45.83;27.60;;;7.70;99.20;;;;;;5093086;28;20032;-70
2021/03/12 03:55:31;;;;;;;43.92;28.08;;;7.70;99.60;;;;;;5093089;28;20040;-70
2021/03/12 03:57:59;;;;;;;44.70;26.67;;;7.70;99.40;;;;;;5092721;28;20044;-70
2021/03/12 04:00:25;;;;;;;50.70;28.25;;;7.70;99.60;;;;;;5093737;28;20028;-69
2021/03/12 04:02:52;;;;;;;46.05;25.50;;;7.70;99.40;;;;;;5086019;28;20036;-70
2021/03/12 04:05:18;;;;;;;47.10;26.35;;;7.70;99.40;;;;;;5066176;28;20035;-69
2021/03/12 04:07:44;;;;;;;47.90;28.40;;;7.70;99.70;;;;;;5082607;28;20024;-70
2021/03/12 04:10:12;;;;;;;51.72;28.88;;;7.70;99.70;;;;;;5085174;28;20024;-69
2021/03/12 04:12:38;;;;;;;45.35;27.25;;;7.70;99.60;;;;;;5085380;28;20067;-69
2021/03/12 04:15:06;;;;;;;45.88;27.48;;;7.60;99.60;;;;;;5085951;28;20059;-69
2021/03/12 04:17:35;;;;;;;45.80;27.10;;;7.60;99.90;;;;;;5084599;28;20079;-70
2021/03/12 04:20:03;;;;;;;46.75;26.30;;;7.60;99.90;;;;;;5085154;28;20024;-70
2021/03/12 04:22:29;;;;;;;51.35;27.55;;;7.70;99.90;;;;;;5075250;28;20032;-69
2021/03/12 04:24:56;;;;;;;49.33;28.02;;;7.70;99.80;;;;;;5065329;28;20684;-70
2021/03/12 04:27:22;;;;;;;47.35;29.40;;;7.70;99.90;;;;;;5078951;28;20123;-69
2021/03/12 04:29:48;;;;;;;47.70;28.25;;;7.70;99.90;;;;;;5083797;28;20037;-69
2021/03/12 04:32:16;;;;;;;49.42;29.45;;;7.70;99.90;;;;;;5085015;28;20115;-69
2021/03/12 04:34:41;;;;;;;45.22;27.02;;;7.60;99.90;;;;;;5084964;28;20051;-69
2021/03/12 04:37:08;;;;;;;48.72;29.20;;;7.50;99.90;;;;;;5084596;28;20040;-69
2021/03/12 04:39:35;;;;;;;49.08;26.85;;;7.50;99.90;;;;;;5071716;28;20475;-69
2021/03/12 04:42:01;;;;;;;45.67;28.08;;;7.40;99.90;;;;;;5085417;28;20923;-69
2021/03/12 04:44:28;;;;;;;44.40;27.42;;;7.50;99.90;;;;;;5084960;28;20028;-70
2021/03/12 04:46:54;;;;;;;52.55;29.77;;;7.50;99.90;;;;;;5084285;28;20069;-70
2021/03/12 04:49:20;;;;;;;48.97;27.95;;;7.60;99.90;;;;;;5084784;28;20071;-69
2021/03/12 04:51:46;;;;;;;44.13;27.35;;;7.60;99.90;;;;;;5083931;28;20035;-69
2021/03/12 04:54:17;;;;;;;46.53;28.42;;;7.50;99.90;;;;;;5085038;28;20028;-70
2021/03/12 04:56:43;;;;;;;44.40;26.48;;;7.50;99.90;;;;;;5082371;28;20039;-70
2021/03/12 04:59:09;;;;;;;47.72;27.45;;;7.50;99.90;;;;;;5084652;28;20511;-70
2021/03/12 05:01:36;;;;;;;46.40;28.10;;;7.40;99.90;;;;;;5084714;28;20030;-69
2021/03/12 05:04:03;;;;;;;50.55;29.42;;;7.40;99.90;;;;;;5084526;28;20051;-70
2021/03/12 05:06:31;;;;;;;49.08;29.20;;;7.40;99.90;;;;;;5083650;28;20043;-70
2021/03/12 05:08:57;;;;;;;45.42;28.27;;;7.40;99.90;;;;;;5084121;28;20023;-69
2021/03/12 05:11:23;;;;;;;48.10;29.02;;;7.30;99.90;;;;;;5084862;28;20074;-69
2021/03/12 05:13:50;;;;;;;49.22;29.25;;;7.30;99.90;;;;;;5070557;28;20025;-70
2021/03/12 05:16:16;;;;;;;45.75;27.45;;;7.30;99.90;;;;;;5073896;28;20127;-69
2021/03/12 05:18:42;;;;;;;46.53;28.52;;;7.30;99.90;;;;;;5083595;28;20036;-70
2021/03/12 05:21:08;;;;;;;45.72;28.02;;;7.30;99.90;;;;;;5082515;28;20100;-70
2021/03/12 05:23:34;;;;;;;49.95;27.98;;;7.20;99.90;;;;;;5065014;28;20095;-69
2021/03/12 05:26:00;;;;;;;47.08;27.77;;;7.20;99.90;;;;;;5077099;28;20026;-69
2021/03/12 05:28:26;;;;;;;51.45;30.10;;;7.10;99.90;;;;;;5084435;28;20107;-70
2021/03/12 05:30:52;;;;;;;47.38;27.83;;;7.10;99.90;;;;;;5070331;28;20131;-70
2021/03/12 05:33:17;;;;;;;46.72;27.67;;;7.00;99.90;;;;;;5084673;28;20024;-70
2021/03/12 05:35:43;;;;;;;47.40;27.30;;;6.90;99.90;;;;;;5081919;28;20040;-70
2021/03/12 05:38:08;;;;;;;53.08;29.88;;;6.90;99.90;;;;;;5082869;28;20035;-70
2021/03/12 05:40:34;;;;;;;47.60;29.13;;;7.00;99.90;;;;;;5083238;28;20062;-70
2021/03/12 05:43:02;;;;;;;47.78;28.52;;;7.00;99.90;;;;;;5084045;28;20077;-70
2021/03/12 05:45:28;;;;;;;52.70;29.77;;;6.80;99.90;;;;;;5084670;28;20020;-70
2021/03/12 05:47:55;;;;;;;46.30;27.05;;;6.70;99.90;;;;;;5069700;28;20099;-69
2021/03/12 05:50:22;;;;;;;49.30;27.90;;;6.60;99.90;;;;;;5083400;28;20474;-70
2021/03/12 05:52:48;;;;;;;50.25;27.92;;;6.60;99.90;;;;;;5084192;28;20059;-70
2021/03/12 05:55:18;;;;;;;50.67;30.60;;;6.60;99.90;;;;;;5084203;28;20026;-70
2021/03/12 05:57:45;;;;;;;48.75;29.50;;;6.60;99.90;;;;;;5084078;28;20506;-70
2021/03/12 06:00:12;;;;;;;51.30;28.88;;;6.60;99.90;;;;;;5082480;28;20016;-69
2021/03/12 06:02:38;;;;;;;51.55;30.75;;;6.40;99.90;;;;;;5082119;28;20148;-70
2021/03/12 06:05:10;;;;;;;48.33;28.70;;;6.40;99.90;;;;;;5066448;28;20028;-70
2021/03/12 06:07:39;;;;;;;53.60;27.77;;;6.40;99.90;;;;;;5080562;28;20055;-70
2021/03/12 06:10:07;;;;;;;47.25;29.17;;;6.40;99.90;;;;;;5082871;28;20032;-70
2021/03/12 06:12:33;;;;;;;52.42;30.92;;;6.40;99.90;;;;;;5085802;28;20507;-69
2021/03/12 06:15:01;;;;;;;52.63;29.92;;;6.40;99.90;;;;;;5086217;28;20024;-68
2021/03/12 06:17:33;;;;;;;55.85;31.02;;;6.30;99.90;;;;;;5083195;28;20126;-70
2021/03/12 06:19:59;;;;;;;51.92;30.83;;;6.30;99.90;;;;;;5080584;28;20051;-71
2021/03/12 06:22:25;;;;;;;54.92;31.60;;;6.20;99.90;;;;;;5079207;28;20028;-70
2021/03/12 06:24:51;;;;;;;52.55;29.13;;;6.40;99.90;;;;;;5083685;28;20024;-71
2021/03/12 06:27:28;;;;;;;50.67;30.05;;;6.60;99.90;;;;;;5087807;28;20063;-71
2021/03/12 06:30:01;;;;;;;56.38;33.90;;;6.50;99.90;;;;;;5083154;28;20390;-69
2021/03/12 06:32:53;;;;;;;58.58;32.28;;;6.50;99.90;;;;;;5083202;28;20024;-68
2021/03/12 06:35:21;;;;;;;49.83;30.20;;;6.60;99.90;;;;;;5082935;28;20482;-69
2021/03/12 06:37:48;;;;;;;51.45;30.10;;;6.70;99.90;;;;;;5076260;28;20076;-69
2021/03/12 06:40:19;;;;;;;53.42;30.05;;;6.70;99.90;;;;;;5075317;28;20027;-69
2021/03/12 06:43:01;;;;;;;49.60;29.67;;;6.80;99.90;;;;;;5082681;28;20028;-69
2021/03/12 06:45:28;;;;;;;50.83;30.20;;;6.90;99.90;;;;;;5082654;28;20418;-69
2021/03/12 06:48:12;;;;;;;55.78;30.85;;;7.00;99.90;;;;;;5086812;28;20077;-69
2021/03/12 06:50:48;;;;;;;45.15;27.30;;;7.10;99.90;;;;;;5086853;28;20020;-69
2021/03/12 06:53:21;;;;;;;47.10;26.85;;;7.00;99.90;;;;;;5086355;28;20055;-69
2021/03/12 06:55:47;;;;;;;49.83;30.27;;;7.10;99.90;;;;;;5085194;28;20089;-69
2021/03/12 06:58:13;;;;;;;52.65;28.08;;;7.10;99.90;;;;;;5086586;28;20088;-69
2021/03/12 07:00:39;;;;;;;49.28;29.08;;;7.20;99.90;;;;;;5087089;28;20483;-69
2021/03/12 07:03:33;;;;;;;44.50;27.40;;;7.30;99.90;;;;;;5086443;28;20542;-69
2021/03/12 07:06:03;;;;;;;46.85;28.92;;;7.30;99.90;;;;;;5086426;28;20024;-69
2021/03/12 07:08:37;;;;;;;48.17;27.55;;;7.40;99.90;;;;;;5086765;28;20016;-69
2021/03/12 07:11:23;;;;;;;;;;;7.30;99.90;;;;;;5086220;28;20050;-69
2021/03/12 07:13:50;;;;;;;;;;;7.40;99.90;;;;;;5066074;28;19908;-67
2021/03/12 07:16:16;;;;;;;49.97;27.67;;;7.40;99.90;;;;;;5077327;28;20243;-69
2021/03/12 07:18:42;;;;;;;46.38;27.20;;;7.40;99.90;;;;;;5086386;28;20023;-69
2021/03/12 07:21:10;;;;;;;48.35;28.20;;;7.40;99.90;;;;;;5075645;28;20025;-69
2021/03/12 07:23:39;;;;;;;58.55;31.92;;;7.40;99.90;;;;;;5081134;28;20028;-69
2021/03/12 07:26:10;;;;;;;47.42;28.15;;;7.50;99.90;;;;;;5085988;28;20518;-69
2021/03/12 07:28:36;;;;;;;46.05;27.38;;;7.60;99.90;;;;;;5080323;28;20060;-69
2021/03/12 07:31:05;;;;;;;45.85;27.17;;;7.60;99.90;;;;;;5081010;28;20085;-69
2021/03/12 07:33:34;;;;;;;47.83;28.75;;;7.60;99.90;;;;;;5086116;28;20703;-68
2021/03/12 07:36:03;;;;;;;47.78;26.70;;;7.70;99.90;;;;;;5085708;28;20103;-69
2021/03/12 07:38:32;;;;;;;48.17;29.73;;;7.70;99.90;;;;;;5085639;28;20035;-69
2021/03/12 07:40:58;;;;;;;46.35;28.95;;;7.80;99.90;;;;;;5085062;28;20016;-69
2021/03/12 07:43:24;;;;;;;45.92;27.13;;;7.80;99.90;;;;;;5086061;28;20078;-69
2021/03/12 07:45:51;;;;;;;48.67;28.65;;;8.00;99.90;;;;;;5077970;28;20394;-69
2021/03/12 07:48:16;;;;;;;46.35;28.20;;;8.00;99.90;;;;;;5065820;28;20036;-69
2021/03/12 07:50:42;;;;;;;45.63;29.17;;;8.00;99.90;;;;;;5067889;28;20029;-68
2021/03/12 07:53:09;;;;;;;45.55;29.30;;;7.90;99.90;;;;;;5085722;28;20506;-69
2021/03/12 07:55:37;;;;;;;49.78;30.33;;;8.00;99.90;;;;;;5085978;28;20658;-69
2021/03/12 07:58:08;;;;;;;50.65;28.25;;;8.10;99.90;;;;;;5084956;28;20089;-69
2021/03/12 08:00:51;;;;;;;50.60;29.73;;;8.10;99.90;;;;;;5085537;28;20097;-69
2021/03/12 08:03:40;;;;;;;47.35;28.52;;;8.00;99.90;;;;;;5081479;28;20027;-69
2021/03/12 08:06:34;;;;;;;45.00;26.45;;;8.00;99.90;;;;;;5084639;28;20036;-69
2021/03/12 08:09:00;;;;;;;48.30;27.83;;;8.20;99.90;;;;;;5083687;28;20080;-69
2021/03/12 08:11:29;;;;;;;47.65;28.85;;;8.30;99.90;;;;;;5084864;28;20053;-70
2021/03/12 08:14:10;;;;;;;51.80;29.42;;;8.30;99.90;;;;;;5084996;28;20103;-69
2021/03/12 08:17:04;;;;;;;45.35;28.08;;;8.40;99.90;;;;;;5085720;28;20031;-69
2021/03/12 08:19:34;;;;;;;46.05;28.90;;;8.50;99.90;;;;;;5077027;28;20028;-69
2021/03/12 08:22:01;;;;;;;47.38;28.95;;;8.70;99.90;;;;;;5082127;28;20526;-70
2021/03/12 08:24:49;;;;;;;51.67;29.67;;;9.10;99.90;;;;;;5085840;28;20095;-69
2021/03/12 08:27:41;;;;;;;50.17;29.35;;;9.30;99.00;;;;;;5086144;28;20052;-69
2021/03/12 08:30:09;;;;;;;53.53;29.92;;;8.90;99.50;;;;;;5085449;28;20490;-69
2021/03/12 08:32:35;;;;;;;52.72;29.35;;;8.80;99.30;;;;;;5084914;28;20036;-68
2021/03/12 08:35:02;;;;;;;50.17;28.85;;;8.90;99.50;;;;;;5084529;28;20044;-68
2021/03/12 08:37:30;;;;;;;46.65;29.30;;;8.90;99.30;;;;;;5072906;28;20517;-68
2021/03/12 08:40:14;;;;;;;52.35;30.40;;;9.00;99.80;;;;;;5065289;28;20025;-68
2021/03/12 08:43:00;;;;;;;48.33;30.42;;;9.10;99.60;;;;;;5071453;28;20040;-68
2021/03/12 08:45:36;;;;;;;44.92;28.90;;;9.10;99.00;;;;;;5085604;28;20125;-68
2021/03/12 08:48:18;;;;;;;49.65;28.83;;;9.20;99.60;;;;;;5085087;28;20039;-69
2021/03/12 08:50:55;;;;;;;48.20;27.88;;;9.20;98.90;;;;;;5085313;28;20042;-68
2021/03/12 08:53:23;;;;;;;48.50;29.95;;;9.40;99.10;;;;;;5081542;28;20487;-68
2021/03/12 08:55:51;;;;;;;52.70;29.77;;;9.40;98.60;;;;;;5077643;28;20028;-69
2021/03/12 08:58:21;;;;;;;48.70;28.02;;;9.50;98.00;;;;;;5084152;28;20040;-69
2021/03/12 09:00:54;;;;;;;44.55;28.27;;;9.50;98.10;;;;;;5085200;28;20024;-68
2021/03/12 09:03:23;;;;;;;44.42;29.13;;;9.70;98.20;;;;;;5084838;28;20020;-68
2021/03/12 09:05:51;;;;;;;46.53;28.58;;;9.80;97.40;;;;;;5085584;28;20032;-70
2021/03/12 09:08:26;;;;;;;48.25;29.08;;;9.60;98.00;;;;;;5085148;28;20103;-68
2021/03/12 09:10:52;;;;;;;52.80;28.33;;;9.70;97.70;;;;;;5080501;28;20102;-69
2021/03/12 09:13:20;;;;;;;51.95;31.25;;;9.80;97.60;;;;;;5084314;28;20066;-69
2021/03/12 09:15:47;;;;;;;45.40;28.75;;;9.90;97.50;;;;;;5085147;28;20478;-69
2021/03/12 09:18:20;;;;;;;47.90;29.02;;;10.10;97.20;;;;;;5083726;28;20128;-69
2021/03/12 09:20:55;;;;;;;47.40;29.77;;;9.80;97.60;;;;;;5069677;28;20501;-68
2021/03/12 09:23:52;;;;;;;46.60;28.45;;;10.00;97.50;;;;;;5064700;28;20275;-68
2021/03/12 09:26:26;;;;;;;44.08;28.27;;;10.00;97.30;;;;;;5064698;28;20027;-69
2021/03/12 09:28:55;;;;;;;46.55;28.92;;;10.00;97.30;;;;;;5066472;28;20041;-68
2021/03/12 09:31:32;;;;;;;46.17;28.80;;;10.00;97.50;;;;;;5064540;28;20578;-68
2021/03/12 09:34:00;;;;;;;48.25;27.83;;;9.90;97.80;;;;;;5064030;28;20039;-69
2021/03/12 09:36:35;;;;;;;46.75;28.20;;;9.90;97.30;;;;;;5064607;28;20502;-69
2021/03/12 09:39:03;;;;;;;56.10;30.45;;;10.10;97.10;;;;;;5079666;28;20067;-69
2021/03/12 09:41:30;;;;;;;47.90;28.85;;;10.30;97.00;;;;;;5083482;28;20044;-68
2021/03/12 09:44:10;;;;;;;48.50;28.90;;;10.20;96.60;;;;;;5084372;28;20031;-69
2021/03/12 09:46:42;;;;;;;42.05;26.88;;;10.30;96.80;;;;;;5064286;28;20025;-69
2021/03/12 09:49:15;;;;;;;44.53;28.38;;;10.60;96.20;;;;;;5063919;28;20056;-69
2021/03/12 09:51:45;;;;;;;55.42;28.55;;;10.30;96.50;;;;;;5074032;28;20036;-69
2021/03/12 09:54:13;;;;;;;44.13;28.23;;;10.50;96.10;;;;;;5083186;28;20028;-69
2021/03/12 09:56:41;;;;;;;46.60;28.95;;;10.60;96.20;;;;;;5084509;28;20043;-69
2021/03/12 09:59:07;;;;;;;50.13;30.25;;;10.40;96.00;;;;;;5084320;28;20942;-68
2021/03/12 10:01:38;;;;;;;48.47;30.38;;;10.40;96.20;;;;;;5078688;28;20048;-69
2021/03/12 10:04:36;;;;;;;41.15;27.35;;;10.70;96.10;;;;;;5064849;28;20060;-68
2021/03/12 10:07:08;;;;;;;49.05;28.05;;;10.80;95.60;;;;;;5084214;28;20031;-69
2021/03/12 10:09:40;;;;;;;44.15;27.50;;;10.70;95.60;;;;;;5083370;28;20450;-68
2021/03/12 10:12:20;;;;;;;49.97;31.30;;;10.70;95.60;;;;;;5083503;28;20107;-68
2021/03/12 10:14:48;;;;;;;44.28;28.02;;;10.80;95.90;;;;;;5083735;28;20437;-69
2021/03/12 10:17:26;;;;;;;49.60;30.52;;;10.80;95.50;;;;;;5084327;28;20118;-69
2021/03/12 10:19:51;;;;;;;46.78;29.15;;;10.90;95.50;;;;;;5067364;28;20112;-68
2021/03/12 10:22:25;;;;;;;45.85;29.83;;;11.10;95.50;;;;;;5067801;28;20099;-68
2021/03/12 10:25:03;;;;;;;50.08;30.55;;;11.10;95.40;;;;;;5068639;28;20382;-69
2021/03/12 10:27:32;;;;;;;41.65;26.90;;;11.20;95.30;;;;;;5087235;28;20036;-69
2021/03/12 10:29:58;;;;;;;46.25;29.20;;;11.30;95.20;;;;;;5088083;28;20091;-69
2021/03/12 10:32:25;;;;;;;41.22;27.10;;;11.40;95.20;;;;;;5088235;28;20056;-69
2021/03/12 10:34:53;;;;;;;42.33;29.08;;;11.40;94.40;;;;;;5088190;28;20044;-69
2021/03/12 10:37:24;;;;;;;40.55;27.80;;;11.50;94.40;;;;;;5068252;28;20044;-69
2021/03/12 10:39:52;;;;;;;43.40;28.58;;;11.70;94.70;;;;;;5083299;28;20689;-69
2021/03/12 10:42:30;;;;;;;39.80;25.00;;;11.90;94.70;;;;;;5087800;28;20409;-68
2021/03/12 10:45:03;;;;;;;41.17;27.42;;;11.90;94.20;;;;;;5087724;28;20039;-68
2021/03/12 10:47:29;;;;;;;43.47;26.15;;;11.90;94.30;;;;;;5088397;28;20031;-68
2021/03/12 10:49:55;;;;;;;41.38;26.63;;;12.10;94.60;;;;;;5086721;28;20106;-68
2021/03/12 10:52:31;;;;;;;41.28;24.75;;;12.00;93.80;;;;;;5083140;28;20481;-68
2021/03/12 10:55:08;;;;;;;41.08;26.20;;;12.10;94.20;;;;;;5067133;28;20020;-69
2021/03/12 10:57:45;;;;;;;40.50;25.85;;;12.10;93.70;;;;;;5071759;28;20035;-69
2021/03/12 11:00:18;;;;;;;40.72;26.38;;;12.30;93.90;;;;;;5086250;28;20042;-68
2021/03/12 11:02:44;;;;;;;39.65;27.45;;;12.30;93.10;;;;;;5086892;28;20063;-69
2021/03/12 11:05:10;;;;;;;40.00;26.50;;;12.30;93.40;;;;;;5087287;28;20068;-68
2021/03/12 11:07:36;;;;;;;40.50;26.40;;;12.30;94.00;;;;;;5087508;28;20032;-68
2021/03/12 11:10:03;;;;;;;45.25;27.08;;;12.60;93.80;;;;;;5077617;28;20055;-69
2021/03/12 11:12:45;;;;;;;38.65;24.75;;;12.70;93.40;;;;;;5080165;28;20024;-69
2021/03/12 11:15:17;;;;;;;38.47;25.52;;;12.80;93.00;;;;;;5087137;28;20082;-69
2021/03/12 11:17:48;;;;;;;37.08;25.02;;;13.10;93.00;;;;;;5087291;28;20039;-68
2021/03/12 11:20:21;;;;;;;38.53;22.42;;;13.00;92.70;;;;;;5067720;28;20035;-69
2021/03/12 11:22:49;;;;;;;39.28;23.88;;;12.80;92.50;;;;;;5067312;28;20017;-69
2021/03/12 11:25:19;;;;;;;34.28;22.50;;;12.60;93.00;;;;;;5086331;28;20024;-69
2021/03/12 11:27:45;;;;;;;41.78;23.83;;;13.00;92.80;;;;;;5084717;28;20027;-69
2021/03/12 11:30:16;;;;;;;33.53;22.25;;;13.30;92.60;;;;;;5085540;28;20089;-68
2021/03/12 11:32:42;;;;;;;35.33;22.85;;;13.20;92.10;;;;;;5084892;28;20123;-69
2021/03/12 11:35:09;;;;;;;40.70;24.05;;;13.30;92.50;;;;;;5085672;28;20044;-68
2021/03/12 11:37:35;;;;;;;33.20;23.02;;;13.40;92.90;;;;;;5084694;28;20052;-68
2021/03/12 11:40:01;;;;;;;37.22;21.67;;;13.70;92.80;;;;;;5086954;28;20078;-69
2021/03/12 11:42:27;;;;;;;35.42;22.23;;;13.70;93.00;;;;;;5087186;28;20508;-69
2021/03/12 11:44:53;;;;;;;32.50;20.90;;;13.50;92.10;;;;;;5070240;28;20024;-69
2021/03/12 11:47:18;;;;;;;31.38;20.73;;;13.60;92.10;;;;;;5066898;28;20123;-68
2021/03/12 11:49:47;;;;;;;34.42;22.17;;;13.60;92.30;;;;;;5066717;28;20067;-68
2021/03/12 11:52:13;;;;;;;33.05;20.70;;;13.80;92.40;;;;;;5066364;28;20032;-69
2021/03/12 11:54:39;;;;;;;32.83;21.35;;;13.70;91.90;;;;;;5071447;28;20466;-69
2021/03/12 11:57:05;;;;;;;29.63;19.27;;;13.50;91.90;;;;;;5086297;28;20047;-68
2021/03/12 11:59:31;;;;;;;34.45;20.58;;;13.90;92.70;;;;;;5086535;28;20051;-69
2021/03/12 12:01:59;;;;;;;33.75;22.30;;;14.10;92.30;;;;;;5083157;28;20021;-69
2021/03/12 12:04:24;;;;;;;36.00;21.95;;;14.10;91.90;;;;;;5086522;28;20020;-68
2021/03/12 12:06:51;;;;;;;29.80;20.17;;;14.10;92.10;;;;;;5085691;28;20085;-69
2021/03/12 12:09:16;;;;;;;33.70;21.70;;;14.00;91.70;;;;;;5085797;28;20040;-68
2021/03/12 12:11:42;;;;;;;35.58;21.85;;;13.80;91.80;;;;;;5085402;28;20375;-68
2021/03/12 12:14:08;;;;;;;34.90;22.15;;;14.10;92.10;;;;;;5085899;28;20063;-69
2021/03/12 12:16:33;;;;;;;31.60;21.80;;;14.10;92.00;;;;;;5085888;28;20036;-68
2021/03/12 12:19:04;;;;;;;37.38;21.85;;;14.10;91.50;;;;;;5068363;28;20025;-69
2021/03/12 12:21:30;;;;;;;30.98;20.52;;;14.10;91.70;;;;;;5069353;28;20023;-69
2021/03/12 12:23:56;;;;;;;33.50;20.65;;;14.10;91.00;;;;;;5085865;28;20559;-68
2021/03/12 12:26:22;;;;;;;31.92;20.98;;;14.00;91.20;;;;;;5085461;28;20032;-69
2021/03/12 12:28:48;;;;;;;31.90;20.77;;;13.90;91.10;;;;;;5085735;28;20036;-69
2021/03/12 12:31:13;;;;;;;31.83;19.80;;;13.90;91.10;;;;;;5085838;28;20597;-69
2021/03/12 12:33:40;;;;;;;30.73;21.13;;;14.10;91.30;;;;;;5085069;28;20065;-68
2021/03/12 12:36:07;;;;;;;29.77;20.75;;;14.30;91.00;;;;;;5083669;28;20040;-68
2021/03/12 12:38:33;;;;;;;30.30;19.30;;;14.30;91.00;;;;;;5086018;28;20032;-68
2021/03/12 12:40:59;;;;;;;34.13;22.33;;;14.20;90.80;;;;;;5085416;28;20526;-68
2021/03/12 12:43:24;;;;;;;34.30;21.75;;;14.10;90.70;;;;;;5085313;28;20056;-68
2021/03/12 12:45:50;;;;;;;31.75;20.90;;;14.10;90.80;;;;;;5084544;28;20031;-68